sensor_id;sensor_type;location;lat;lon;timestamp;P1;durP1;ratioP1;P2;durP2;ratioP2
68438;SDS011;55421;51.600;5.718;2022-09-01T00:02:15;1.80;;;1.50;;
68438;SDS011;55421;51.600;5.718;2022-09-01T00:04:43;5.40;;;1.90;;
68438;SDS011;55421;51.600;5.718;2022-09-01T00:07:11;2.90;;;1.70;;
68438;SDS011;55421;51.600;5.718;2022-09-01T00:09:39;4.70;;;1.90;;
68438;SDS011;55421;51.600;5.718;2022-09-01T00:12:08;4.00;;;1.90;;
68438;SDS011;55421;51.600;5.718;2022-09-01T00:14:39;2.00;;;1.70;;
68438;SDS011;55421;51.600;5.718;2022-09-01T00:17:08;3.20;;;1.60;;
68438;SDS011;55421;51.600;5.718;2022-09-01T00:19:37;3.20;;;1.70;;
68438;SDS011;55421;51.600;5.718;2022-09-01T00:22:06;4.90;;;1.80;;
68438;SDS011;55421;51.600;5.718;2022-09-01T00:24:33;4.90;;;1.80;;
68438;SDS011;55421;51.600;5.718;2022-09-01T00:27:00;2.70;;;1.80;;
68438;SDS011;55421;51.600;5.718;2022-09-01T00:29:26;5.20;;;1.70;;
68438;SDS011;55421;51.600;5.718;2022-09-01T00:31:53;3.50;;;1.80;;
68438;SDS011;55421;51.600;5.718;2022-09-01T00:34:20;2.90;;;1.80;;
68438;SDS011;55421;51.600;5.718;2022-09-01T00:36:47;1.60;;;1.50;;
68438;SDS011;55421;51.600;5.718;2022-09-01T00:39:14;3.30;;;1.60;;
68438;SDS011;55421;51.600;5.718;2022-09-01T00:41:41;2.50;;;1.60;;
68438;SDS011;55421;51.600;5.718;2022-09-01T00:44:13;3.50;;;1.80;;
68438;SDS011;55421;51.600;5.718;2022-09-01T00:46:47;1.60;;;1.50;;
68438;SDS011;55421;51.600;5.718;2022-09-01T00:49:18;2.80;;;1.80;;
68438;SDS011;55421;51.600;5.718;2022-09-01T00:51:50;3.90;;;1.70;;
68438;SDS011;55421;51.600;5.718;2022-09-01T00:54:25;1.80;;;1.70;;
68438;SDS011;55421;51.600;5.718;2022-09-01T00:56:56;2.40;;;1.90;;
68438;SDS011;55421;51.600;5.718;2022-09-01T00:59:25;6.50;;;2.00;;
68438;SDS011;55421;51.600;5.718;2022-09-01T01:01:54;2.00;;;1.70;;
68438;SDS011;55421;51.600;5.718;2022-09-01T01:04:21;2.90;;;1.90;;
68438;SDS011;55421;51.600;5.718;2022-09-01T01:06:53;2.80;;;2.00;;
68438;SDS011;55421;51.600;5.718;2022-09-01T01:09:33;1.80;;;1.70;;
68438;SDS011;55421;51.600;5.718;2022-09-01T01:12:04;5.00;;;2.10;;
68438;SDS011;55421;51.600;5.718;2022-09-01T01:14:34;3.00;;;2.10;;
68438;SDS011;55421;51.600;5.718;2022-09-01T01:17:02;5.80;;;2.10;;
68438;SDS011;55421;51.600;5.718;2022-09-01T01:25:58;2.30;;;1.90;;
68438;SDS011;55421;51.600;5.718;2022-09-01T01:28:33;5.00;;;2.10;;
68438;SDS011;55421;51.600;5.718;2022-09-01T01:31:08;3.30;;;2.20;;
68438;SDS011;55421;51.600;5.718;2022-09-01T01:33:45;3.20;;;2.20;;
68438;SDS011;55421;51.600;5.718;2022-09-01T01:36:25;5.00;;;2.50;;
68438;SDS011;55421;51.600;5.718;2022-09-01T01:39:11;4.40;;;2.20;;
68438;SDS011;55421;51.600;5.718;2022-09-01T01:41:43;4.00;;;1.90;;
68438;SDS011;55421;51.600;5.718;2022-09-01T01:44:16;2.50;;;2.20;;
68438;SDS011;55421;51.600;5.718;2022-09-01T01:46:48;2.80;;;2.00;;
68438;SDS011;55421;51.600;5.718;2022-09-01T01:51:56;2.70;;;2.10;;
68438;SDS011;55421;51.600;5.718;2022-09-01T01:54:24;5.00;;;2.40;;
68438;SDS011;55421;51.600;5.718;2022-09-01T01:56:58;2.60;;;2.40;;
68438;SDS011;55421;51.600;5.718;2022-09-01T01:59:25;10.40;;;2.80;;
68438;SDS011;55421;51.600;5.718;2022-09-01T02:01:54;5.20;;;2.60;;
68438;SDS011;55421;51.600;5.718;2022-09-01T02:04:21;3.70;;;2.40;;
68438;SDS011;55421;51.600;5.718;2022-09-01T02:06:49;3.40;;;2.30;;
68438;SDS011;55421;51.600;5.718;2022-09-01T02:09:19;2.60;;;2.30;;
68438;SDS011;55421;51.600;5.718;2022-09-01T02:11:48;3.80;;;2.20;;
68438;SDS011;55421;51.600;5.718;2022-09-01T02:14:19;4.50;;;2.20;;
68438;SDS011;55421;51.600;5.718;2022-09-01T02:16:47;5.30;;;2.40;;
68438;SDS011;55421;51.600;5.718;2022-09-01T02:19:15;2.60;;;2.40;;
68438;SDS011;55421;51.600;5.718;2022-09-01T02:21:46;4.70;;;2.10;;
68438;SDS011;55421;51.600;5.718;2022-09-01T02:24:14;4.20;;;2.20;;
68438;SDS011;55421;51.600;5.718;2022-09-01T02:26:43;6.00;;;2.40;;
68438;SDS011;55421;51.600;5.718;2022-09-01T02:29:15;2.90;;;2.20;;
68438;SDS011;55421;51.600;5.718;2022-09-01T02:31:48;2.20;;;2.10;;
68438;SDS011;55421;51.600;5.718;2022-09-01T02:36:48;3.70;;;1.90;;
68438;SDS011;55421;51.600;5.718;2022-09-01T02:39:19;5.90;;;2.20;;
68438;SDS011;55421;51.600;5.718;2022-09-01T02:41:52;2.40;;;2.20;;
68438;SDS011;55421;51.600;5.718;2022-09-01T02:44:19;3.10;;;2.10;;
68438;SDS011;55421;51.600;5.718;2022-09-01T02:46:48;5.70;;;2.30;;
68438;SDS011;55421;51.600;5.718;2022-09-01T02:49:20;6.20;;;2.10;;
68438;SDS011;55421;51.600;5.718;2022-09-01T02:51:54;8.00;;;2.50;;
68438;SDS011;55421;51.600;5.718;2022-09-01T02:54:27;2.30;;;2.10;;
68438;SDS011;55421;51.600;5.718;2022-09-01T02:56:55;3.00;;;2.10;;
68438;SDS011;55421;51.600;5.718;2022-09-01T02:59:25;2.70;;;2.40;;
68438;SDS011;55421;51.600;5.718;2022-09-01T03:04:20;3.60;;;2.20;;
68438;SDS011;55421;51.600;5.718;2022-09-01T03:06:48;3.00;;;2.20;;
68438;SDS011;55421;51.600;5.718;2022-09-01T03:09:17;5.20;;;2.30;;
68438;SDS011;55421;51.600;5.718;2022-09-01T03:11:46;5.50;;;2.30;;
68438;SDS011;55421;51.600;5.718;2022-09-01T03:14:15;2.60;;;2.30;;
68438;SDS011;55421;51.600;5.718;2022-09-01T03:16:42;3.70;;;2.40;;
68438;SDS011;55421;51.600;5.718;2022-09-01T03:19:10;5.20;;;2.20;;
68438;SDS011;55421;51.600;5.718;2022-09-01T03:21:39;5.00;;;2.40;;
68438;SDS011;55421;51.600;5.718;2022-09-01T03:24:09;10.70;;;2.50;;
68438;SDS011;55421;51.600;5.718;2022-09-01T03:26:37;7.30;;;2.30;;
68438;SDS011;55421;51.600;5.718;2022-09-01T03:29:05;4.60;;;2.60;;
68438;SDS011;55421;51.600;5.718;2022-09-01T03:31:34;4.70;;;2.40;;
68438;SDS011;55421;51.600;5.718;2022-09-01T03:34:01;3.10;;;2.20;;
68438;SDS011;55421;51.600;5.718;2022-09-01T03:36:32;3.60;;;2.10;;
68438;SDS011;55421;51.600;5.718;2022-09-01T03:39:00;2.40;;;2.10;;
68438;SDS011;55421;51.600;5.718;2022-09-01T03:41:28;3.20;;;2.20;;
68438;SDS011;55421;51.600;5.718;2022-09-01T03:43:56;2.60;;;2.40;;
68438;SDS011;55421;51.600;5.718;2022-09-01T03:46:25;6.60;;;2.20;;
68438;SDS011;55421;51.600;5.718;2022-09-01T03:48:56;3.60;;;2.10;;
68438;SDS011;55421;51.600;5.718;2022-09-01T03:51:28;3.90;;;2.50;;
68438;SDS011;55421;51.600;5.718;2022-09-01T03:53:56;2.50;;;2.30;;
68438;SDS011;55421;51.600;5.718;2022-09-01T03:56:26;4.30;;;2.30;;
68438;SDS011;55421;51.600;5.718;2022-09-01T03:58:56;3.40;;;2.30;;
68438;SDS011;55421;51.600;5.718;2022-09-01T04:01:26;3.70;;;2.00;;
68438;SDS011;55421;51.600;5.718;2022-09-01T04:03:54;3.00;;;2.30;;
68438;SDS011;55421;51.600;5.718;2022-09-01T04:06:21;5.10;;;2.30;;
68438;SDS011;55421;51.600;5.718;2022-09-01T04:08:50;5.80;;;2.00;;
68438;SDS011;55421;51.600;5.718;2022-09-01T04:11:22;3.10;;;2.10;;
68438;SDS011;55421;51.600;5.718;2022-09-01T04:13:50;2.50;;;2.30;;
68438;SDS011;55421;51.600;5.718;2022-09-01T04:16:19;4.00;;;2.20;;
68438;SDS011;55421;51.600;5.718;2022-09-01T04:19:07;5.00;;;2.60;;
68438;SDS011;55421;51.600;5.718;2022-09-01T04:21:46;3.20;;;2.30;;
68438;SDS011;55421;51.600;5.718;2022-09-01T04:24:15;4.40;;;2.30;;
68438;SDS011;55421;51.600;5.718;2022-09-01T04:26:44;3.70;;;2.50;;
68438;SDS011;55421;51.600;5.718;2022-09-01T04:29:15;4.40;;;2.30;;
68438;SDS011;55421;51.600;5.718;2022-09-01T04:34:20;3.20;;;2.60;;
68438;SDS011;55421;51.600;5.718;2022-09-01T04:36:47;5.10;;;2.30;;
68438;SDS011;55421;51.600;5.718;2022-09-01T04:39:15;2.40;;;2.20;;
68438;SDS011;55421;51.600;5.718;2022-09-01T04:41:44;7.30;;;1.90;;
68438;SDS011;55421;51.600;5.718;2022-09-01T04:44:12;6.10;;;2.40;;
68438;SDS011;55421;51.600;5.718;2022-09-01T04:46:44;4.90;;;2.30;;
68438;SDS011;55421;51.600;5.718;2022-09-01T04:49:17;4.50;;;2.30;;
68438;SDS011;55421;51.600;5.718;2022-09-01T04:51:50;7.50;;;2.50;;
68438;SDS011;55421;51.600;5.718;2022-09-01T04:54:18;3.30;;;2.30;;
68438;SDS011;55421;51.600;5.718;2022-09-01T04:56:47;5.80;;;2.40;;
68438;SDS011;55421;51.600;5.718;2022-09-01T04:59:18;2.60;;;2.40;;
68438;SDS011;55421;51.600;5.718;2022-09-01T05:01:47;4.80;;;2.60;;
68438;SDS011;55421;51.600;5.718;2022-09-01T05:04:23;5.10;;;2.20;;
68438;SDS011;55421;51.600;5.718;2022-09-01T05:06:54;7.30;;;2.40;;
68438;SDS011;55421;51.600;5.718;2022-09-01T05:09:27;3.40;;;2.20;;
68438;SDS011;55421;51.600;5.718;2022-09-01T05:11:57;6.00;;;2.10;;
68438;SDS011;55421;51.600;5.718;2022-09-01T05:14:37;4.40;;;2.40;;
68438;SDS011;55421;51.600;5.718;2022-09-01T05:17:09;2.50;;;2.10;;
68438;SDS011;55421;51.600;5.718;2022-09-01T05:19:42;4.20;;;2.00;;
68438;SDS011;55421;51.600;5.718;2022-09-01T05:22:13;5.30;;;2.30;;
68438;SDS011;55421;51.600;5.718;2022-09-01T05:24:41;4.10;;;2.30;;
68438;SDS011;55421;51.600;5.718;2022-09-01T05:27:08;2.90;;;2.40;;
68438;SDS011;55421;51.600;5.718;2022-09-01T05:29:37;3.90;;;2.10;;
68438;SDS011;55421;51.600;5.718;2022-09-01T05:32:06;4.40;;;2.40;;
68438;SDS011;55421;51.600;5.718;2022-09-01T05:34:35;2.20;;;2.00;;
68438;SDS011;55421;51.600;5.718;2022-09-01T05:37:05;2.00;;;1.90;;
68438;SDS011;55421;51.600;5.718;2022-09-01T05:39:35;2.80;;;2.20;;
68438;SDS011;55421;51.600;5.718;2022-09-01T05:42:03;4.80;;;2.20;;
68438;SDS011;55421;51.600;5.718;2022-09-01T05:44:38;3.30;;;2.30;;
68438;SDS011;55421;51.600;5.718;2022-09-01T05:47:09;3.70;;;2.30;;
68438;SDS011;55421;51.600;5.718;2022-09-01T05:49:37;1.90;;;1.80;;
68438;SDS011;55421;51.600;5.718;2022-09-01T05:52:05;3.60;;;2.10;;
68438;SDS011;55421;51.600;5.718;2022-09-01T05:54:34;3.40;;;2.10;;
68438;SDS011;55421;51.600;5.718;2022-09-01T05:57:00;4.00;;;1.90;;
68438;SDS011;55421;51.600;5.718;2022-09-01T05:59:28;3.40;;;2.00;;
68438;SDS011;55421;51.600;5.718;2022-09-01T06:01:56;3.30;;;2.50;;
68438;SDS011;55421;51.600;5.718;2022-09-01T06:04:24;8.50;;;2.10;;
68438;SDS011;55421;51.600;5.718;2022-09-01T06:06:50;1.90;;;1.80;;
68438;SDS011;55421;51.600;5.718;2022-09-01T06:09:18;7.30;;;2.30;;
68438;SDS011;55421;51.600;5.718;2022-09-01T06:11:46;4.10;;;2.20;;
68438;SDS011;55421;51.600;5.718;2022-09-01T06:14:14;31.70;;;3.30;;
68438;SDS011;55421;51.600;5.718;2022-09-01T06:16:43;11.40;;;2.30;;
68438;SDS011;55421;51.600;5.718;2022-09-01T06:19:10;5.10;;;2.40;;
68438;SDS011;55421;51.600;5.718;2022-09-01T06:21:38;6.70;;;2.60;;
68438;SDS011;55421;51.600;5.718;2022-09-01T06:24:05;3.90;;;2.30;;
68438;SDS011;55421;51.600;5.718;2022-09-01T06:26:34;4.60;;;2.20;;
68438;SDS011;55421;51.600;5.718;2022-09-01T06:29:06;2.30;;;2.10;;
68438;SDS011;55421;51.600;5.718;2022-09-01T06:31:36;9.80;;;2.10;;
68438;SDS011;55421;51.600;5.718;2022-09-01T06:34:07;7.70;;;2.40;;
68438;SDS011;55421;51.600;5.718;2022-09-01T06:36:36;4.40;;;2.20;;
68438;SDS011;55421;51.600;5.718;2022-09-01T06:39:06;4.40;;;2.30;;
68438;SDS011;55421;51.600;5.718;2022-09-01T06:41:34;7.10;;;2.90;;
68438;SDS011;55421;51.600;5.718;2022-09-01T06:44:04;11.60;;;2.70;;
68438;SDS011;55421;51.600;5.718;2022-09-01T06:46:30;9.10;;;2.30;;
68438;SDS011;55421;51.600;5.718;2022-09-01T06:48:57;3.50;;;2.20;;
68438;SDS011;55421;51.600;5.718;2022-09-01T06:51:25;9.20;;;2.40;;
68438;SDS011;55421;51.600;5.718;2022-09-01T06:53:56;3.20;;;2.10;;
68438;SDS011;55421;51.600;5.718;2022-09-01T06:56:29;4.90;;;2.40;;
68438;SDS011;55421;51.600;5.718;2022-09-01T06:59:01;5.80;;;2.30;;
68438;SDS011;55421;51.600;5.718;2022-09-01T07:01:30;3.50;;;2.40;;
68438;SDS011;55421;51.600;5.718;2022-09-01T07:03:57;6.10;;;2.20;;
68438;SDS011;55421;51.600;5.718;2022-09-01T07:06:24;4.90;;;2.30;;
68438;SDS011;55421;51.600;5.718;2022-09-01T07:08:56;12.60;;;2.60;;
68438;SDS011;55421;51.600;5.718;2022-09-01T07:11:28;4.90;;;2.20;;
68438;SDS011;55421;51.600;5.718;2022-09-01T07:14:03;7.40;;;2.30;;
68438;SDS011;55421;51.600;5.718;2022-09-01T07:16:34;4.10;;;2.00;;
68438;SDS011;55421;51.600;5.718;2022-09-01T07:19:06;4.70;;;2.10;;
68438;SDS011;55421;51.600;5.718;2022-09-01T07:21:42;20.10;;;2.90;;
68438;SDS011;55421;51.600;5.718;2022-09-01T07:24:10;8.30;;;2.10;;
68438;SDS011;55421;51.600;5.718;2022-09-01T07:26:39;4.40;;;2.30;;
68438;SDS011;55421;51.600;5.718;2022-09-01T07:29:06;8.20;;;2.10;;
68438;SDS011;55421;51.600;5.718;2022-09-01T07:31:37;3.80;;;1.90;;
68438;SDS011;55421;51.600;5.718;2022-09-01T07:34:08;6.00;;;2.30;;
68438;SDS011;55421;51.600;5.718;2022-09-01T07:36:38;10.90;;;2.50;;
68438;SDS011;55421;51.600;5.718;2022-09-01T07:39:06;3.40;;;2.20;;
68438;SDS011;55421;51.600;5.718;2022-09-01T07:41:32;11.40;;;2.40;;
68438;SDS011;55421;51.600;5.718;2022-09-01T07:44:01;6.30;;;2.10;;
68438;SDS011;55421;51.600;5.718;2022-09-01T07:46:31;24.70;;;2.60;;
68438;SDS011;55421;51.600;5.718;2022-09-01T07:48:59;7.60;;;2.40;;
68438;SDS011;55421;51.600;5.718;2022-09-01T07:51:28;8.50;;;2.20;;
68438;SDS011;55421;51.600;5.718;2022-09-01T07:53:57;3.20;;;2.10;;
68438;SDS011;55421;51.600;5.718;2022-09-01T07:56:24;3.30;;;1.90;;
68438;SDS011;55421;51.600;5.718;2022-09-01T07:58:51;6.70;;;1.90;;
68438;SDS011;55421;51.600;5.718;2022-09-01T08:01:24;2.80;;;2.00;;
68438;SDS011;55421;51.600;5.718;2022-09-01T08:03:55;3.90;;;2.00;;
68438;SDS011;55421;51.600;5.718;2022-09-01T08:06:25;2.70;;;1.70;;
68438;SDS011;55421;51.600;5.718;2022-09-01T08:08:55;3.00;;;2.10;;
68438;SDS011;55421;51.600;5.718;2022-09-01T08:11:26;4.90;;;1.90;;
68438;SDS011;55421;51.600;5.718;2022-09-01T08:16:29;4.90;;;2.00;;
68438;SDS011;55421;51.600;5.718;2022-09-01T08:18:56;5.80;;;2.00;;
68438;SDS011;55421;51.600;5.718;2022-09-01T08:21:24;2.50;;;1.80;;
68438;SDS011;55421;51.600;5.718;2022-09-01T08:23:53;4.70;;;1.60;;
68438;SDS011;55421;51.600;5.718;2022-09-01T08:26:23;5.30;;;1.90;;
68438;SDS011;55421;51.600;5.718;2022-09-01T08:28:52;8.00;;;1.80;;
68438;SDS011;55421;51.600;5.718;2022-09-01T08:31:21;3.90;;;1.30;;
68438;SDS011;55421;51.600;5.718;2022-09-01T08:33:49;1.40;;;1.30;;
68438;SDS011;55421;51.600;5.718;2022-09-01T08:36:16;5.00;;;1.70;;
68438;SDS011;55421;51.600;5.718;2022-09-01T08:38:44;7.30;;;1.80;;
68438;SDS011;55421;51.600;5.718;2022-09-01T08:41:35;3.80;;;1.50;;
68438;SDS011;55421;51.600;5.718;2022-09-01T08:47:10;6.20;;;1.50;;
68438;SDS011;55421;51.600;5.718;2022-09-01T08:49:40;5.50;;;1.60;;
68438;SDS011;55421;51.600;5.718;2022-09-01T08:55:02;3.00;;;1.40;;
68438;SDS011;55421;51.600;5.718;2022-09-01T08:57:37;3.60;;;1.50;;
68438;SDS011;55421;51.600;5.718;2022-09-01T09:00:11;3.90;;;1.40;;
68438;SDS011;55421;51.600;5.718;2022-09-01T09:02:52;2.10;;;1.40;;
68438;SDS011;55421;51.600;5.718;2022-09-01T09:14:36;1.20;;;1.10;;
68438;SDS011;55421;51.600;5.718;2022-09-01T09:17:18;3.60;;;1.40;;
68438;SDS011;55421;51.600;5.718;2022-09-01T09:19:47;1.60;;;1.10;;
68438;SDS011;55421;51.600;5.718;2022-09-01T09:22:17;2.60;;;1.20;;
68438;SDS011;55421;51.600;5.718;2022-09-01T09:27:38;8.80;;;1.30;;
68438;SDS011;55421;51.600;5.718;2022-09-01T09:30:13;28.20;;;2.00;;
68438;SDS011;55421;51.600;5.718;2022-09-01T09:33:00;4.40;;;1.20;;
68438;SDS011;55421;51.600;5.718;2022-09-01T09:41:05;1.60;;;1.00;;
68438;SDS011;55421;51.600;5.718;2022-09-01T09:43:46;7.60;;;1.30;;
68438;SDS011;55421;51.600;5.718;2022-09-01T09:46:25;3.70;;;1.10;;
68438;SDS011;55421;51.600;5.718;2022-09-01T09:51:57;8.90;;;1.50;;
68438;SDS011;55421;51.600;5.718;2022-09-01T09:54:57;5.70;;;1.20;;
68438;SDS011;55421;51.600;5.718;2022-09-01T09:57:29;2.50;;;1.10;;
68438;SDS011;55421;51.600;5.718;2022-09-01T10:00:03;3.80;;;1.20;;
68438;SDS011;55421;51.600;5.718;2022-09-01T10:02:36;1.90;;;1.10;;
68438;SDS011;55421;51.600;5.718;2022-09-01T10:08:12;3.20;;;1.10;;
68438;SDS011;55421;51.600;5.718;2022-09-01T10:11:04;5.00;;;1.10;;
68438;SDS011;55421;51.600;5.718;2022-09-01T10:13:32;1.10;;;1.00;;
68438;SDS011;55421;51.600;5.718;2022-09-01T10:16:08;3.10;;;0.90;;
68438;SDS011;55421;51.600;5.718;2022-09-01T10:18:45;5.40;;;1.10;;
68438;SDS011;55421;51.600;5.718;2022-09-01T10:21:16;2.50;;;1.00;;
68438;SDS011;55421;51.600;5.718;2022-09-01T10:23:49;4.50;;;1.00;;
68438;SDS011;55421;51.600;5.718;2022-09-01T10:26:20;1.00;;;0.80;;
68438;SDS011;55421;51.600;5.718;2022-09-01T10:28:57;4.50;;;1.10;;
68438;SDS011;55421;51.600;5.718;2022-09-01T10:31:27;4.40;;;1.00;;
68438;SDS011;55421;51.600;5.718;2022-09-01T10:33:55;2.40;;;1.20;;
68438;SDS011;55421;51.600;5.718;2022-09-01T10:36:22;1.10;;;1.00;;
68438;SDS011;55421;51.600;5.718;2022-09-01T10:38:50;3.60;;;1.20;;
68438;SDS011;55421;51.600;5.718;2022-09-01T10:41:53;4.90;;;1.00;;
68438;SDS011;55421;51.600;5.718;2022-09-01T10:44:37;2.50;;;0.90;;
68438;SDS011;55421;51.600;5.718;2022-09-01T10:47:25;1.30;;;0.90;;
68438;SDS011;55421;51.600;5.718;2022-09-01T10:49:58;5.10;;;1.10;;
68438;SDS011;55421;51.600;5.718;2022-09-01T10:55:14;2.30;;;0.90;;
68438;SDS011;55421;51.600;5.718;2022-09-01T11:00:52;2.90;;;1.20;;
68438;SDS011;55421;51.600;5.718;2022-09-01T11:11:00;1.30;;;0.70;;
68438;SDS011;55421;51.600;5.718;2022-09-01T11:21:47;3.00;;;0.90;;
68438;SDS011;55421;51.600;5.718;2022-09-01T11:24:47;2.20;;;0.80;;
68438;SDS011;55421;51.600;5.718;2022-09-01T11:35:36;1.00;;;0.90;;
68438;SDS011;55421;51.600;5.718;2022-09-01T11:38:05;1.60;;;1.00;;
68438;SDS011;55421;51.600;5.718;2022-09-01T11:40:35;3.60;;;0.70;;
68438;SDS011;55421;51.600;5.718;2022-09-01T11:43:20;5.80;;;1.00;;
68438;SDS011;55421;51.600;5.718;2022-09-01T11:46:15;1.40;;;0.70;;
68438;SDS011;55421;51.600;5.718;2022-09-01T11:49:05;1.30;;;0.70;;
68438;SDS011;55421;51.600;5.718;2022-09-01T11:51:43;0.80;;;0.80;;
68438;SDS011;55421;51.600;5.718;2022-09-01T11:54:13;0.80;;;0.80;;
68438;SDS011;55421;51.600;5.718;2022-09-01T11:56:40;1.00;;;0.80;;
68438;SDS011;55421;51.600;5.718;2022-09-01T11:59:07;1.30;;;0.50;;
68438;SDS011;55421;51.600;5.718;2022-09-01T12:01:36;7.90;;;0.90;;
68438;SDS011;55421;51.600;5.718;2022-09-01T12:04:25;2.70;;;1.20;;
68438;SDS011;55421;51.600;5.718;2022-09-01T12:07:00;1.10;;;0.80;;
68438;SDS011;55421;51.600;5.718;2022-09-01T12:09:32;5.20;;;0.90;;
68438;SDS011;55421;51.600;5.718;2022-09-01T12:12:36;2.30;;;0.80;;
68438;SDS011;55421;51.600;5.718;2022-09-01T12:15:20;1.80;;;0.60;;
68438;SDS011;55421;51.600;5.718;2022-09-01T12:17:52;0.80;;;0.60;;
68438;SDS011;55421;51.600;5.718;2022-09-01T12:22:50;5.20;;;1.00;;
68438;SDS011;55421;51.600;5.718;2022-09-01T12:25:29;1.20;;;0.60;;
68438;SDS011;55421;51.600;5.718;2022-09-01T12:27:59;2.00;;;0.80;;
68438;SDS011;55421;51.600;5.718;2022-09-01T12:30:31;1.30;;;0.80;;
68438;SDS011;55421;51.600;5.718;2022-09-01T12:33:04;2.50;;;0.80;;
68438;SDS011;55421;51.600;5.718;2022-09-01T12:35:32;3.40;;;0.90;;
68438;SDS011;55421;51.600;5.718;2022-09-01T12:40:45;0.80;;;0.70;;
68438;SDS011;55421;51.600;5.718;2022-09-01T12:43:49;1.50;;;0.90;;
68438;SDS011;55421;51.600;5.718;2022-09-01T12:46:39;2.00;;;0.60;;
68438;SDS011;55421;51.600;5.718;2022-09-01T12:49:41;1.90;;;0.80;;
68438;SDS011;55421;51.600;5.718;2022-09-01T12:54:49;2.30;;;0.70;;
68438;SDS011;55421;51.600;5.718;2022-09-01T12:57:30;1.30;;;0.60;;
68438;SDS011;55421;51.600;5.718;2022-09-01T13:05:30;0.70;;;0.60;;
68438;SDS011;55421;51.600;5.718;2022-09-01T13:07:59;1.80;;;0.90;;
68438;SDS011;55421;51.600;5.718;2022-09-01T13:10:31;0.90;;;0.70;;
68438;SDS011;55421;51.600;5.718;2022-09-01T13:13:04;3.10;;;0.90;;
68438;SDS011;55421;51.600;5.718;2022-09-01T13:15:33;2.90;;;0.70;;
68438;SDS011;55421;51.600;5.718;2022-09-01T13:18:01;1.60;;;0.90;;
68438;SDS011;55421;51.600;5.718;2022-09-01T13:20:28;5.80;;;1.30;;
68438;SDS011;55421;51.600;5.718;2022-09-01T13:22:55;4.70;;;1.00;;
68438;SDS011;55421;51.600;5.718;2022-09-01T13:25:22;1.50;;;0.80;;
68438;SDS011;55421;51.600;5.718;2022-09-01T13:27:49;1.20;;;0.90;;
68438;SDS011;55421;51.600;5.718;2022-09-01T13:30:20;8.90;;;1.30;;
68438;SDS011;55421;51.600;5.718;2022-09-01T13:32:49;5.30;;;1.10;;
68438;SDS011;55421;51.600;5.718;2022-09-01T13:35:19;5.40;;;0.90;;
68438;SDS011;55421;51.600;5.718;2022-09-01T13:37:47;3.00;;;0.80;;
68438;SDS011;55421;51.600;5.718;2022-09-01T13:40:16;3.10;;;1.00;;
68438;SDS011;55421;51.600;5.718;2022-09-01T13:42:46;1.80;;;0.70;;
68438;SDS011;55421;51.600;5.718;2022-09-01T13:45:15;4.60;;;1.30;;
68438;SDS011;55421;51.600;5.718;2022-09-01T13:47:45;2.70;;;0.90;;
68438;SDS011;55421;51.600;5.718;2022-09-01T13:50:16;1.10;;;0.80;;
68438;SDS011;55421;51.600;5.718;2022-09-01T13:52:55;1.30;;;1.00;;
68438;SDS011;55421;51.600;5.718;2022-09-01T13:55:28;2.80;;;0.90;;
68438;SDS011;55421;51.600;5.718;2022-09-01T13:57:57;1.30;;;0.90;;
68438;SDS011;55421;51.600;5.718;2022-09-01T14:00:29;1.70;;;0.80;;
68438;SDS011;55421;51.600;5.718;2022-09-01T14:03:01;2.30;;;0.90;;
68438;SDS011;55421;51.600;5.718;2022-09-01T14:05:35;1.10;;;0.90;;
68438;SDS011;55421;51.600;5.718;2022-09-01T14:08:06;2.20;;;1.20;;
68438;SDS011;55421;51.600;5.718;2022-09-01T14:10:38;3.10;;;1.10;;
68438;SDS011;55421;51.600;5.718;2022-09-01T14:13:08;1.70;;;0.80;;
68438;SDS011;55421;51.600;5.718;2022-09-01T14:15:36;3.30;;;1.00;;
68438;SDS011;55421;51.600;5.718;2022-09-01T14:18:03;1.20;;;0.90;;
68438;SDS011;55421;51.600;5.718;2022-09-01T14:20:33;2.30;;;0.90;;
68438;SDS011;55421;51.600;5.718;2022-09-01T14:23:06;1.20;;;0.90;;
68438;SDS011;55421;51.600;5.718;2022-09-01T14:25:36;5.30;;;1.30;;
68438;SDS011;55421;51.600;5.718;2022-09-01T14:28:07;2.50;;;0.90;;
68438;SDS011;55421;51.600;5.718;2022-09-01T14:30:33;3.20;;;1.10;;
68438;SDS011;55421;51.600;5.718;2022-09-01T14:33:01;2.30;;;0.80;;
68438;SDS011;55421;51.600;5.718;2022-09-01T14:35:29;2.50;;;1.20;;
68438;SDS011;55421;51.600;5.718;2022-09-01T14:37:59;1.70;;;0.90;;
68438;SDS011;55421;51.600;5.718;2022-09-01T14:40:26;7.00;;;1.10;;
68438;SDS011;55421;51.600;5.718;2022-09-01T14:42:54;1.30;;;1.00;;
68438;SDS011;55421;51.600;5.718;2022-09-01T14:45:22;2.20;;;1.00;;
68438;SDS011;55421;51.600;5.718;2022-09-01T14:47:54;0.90;;;0.90;;
68438;SDS011;55421;51.600;5.718;2022-09-01T14:50:23;2.60;;;0.90;;
68438;SDS011;55421;51.600;5.718;2022-09-01T14:52:53;1.90;;;1.20;;
68438;SDS011;55421;51.600;5.718;2022-09-01T14:55:23;1.30;;;1.10;;
68438;SDS011;55421;51.600;5.718;2022-09-01T14:57:51;4.10;;;1.20;;
68438;SDS011;55421;51.600;5.718;2022-09-01T15:00:20;5.20;;;1.30;;
68438;SDS011;55421;51.600;5.718;2022-09-01T15:02:51;2.40;;;1.00;;
68438;SDS011;55421;51.600;5.718;2022-09-01T15:05:18;3.10;;;1.00;;
68438;SDS011;55421;51.600;5.718;2022-09-01T15:07:46;2.40;;;1.20;;
68438;SDS011;55421;51.600;5.718;2022-09-01T15:10:15;1.20;;;1.10;;
68438;SDS011;55421;51.600;5.718;2022-09-01T15:12:43;1.30;;;1.20;;
68438;SDS011;55421;51.600;5.718;2022-09-01T15:15:10;3.90;;;1.40;;
68438;SDS011;55421;51.600;5.718;2022-09-01T15:17:37;2.60;;;1.20;;
68438;SDS011;55421;51.600;5.718;2022-09-01T15:20:04;6.00;;;1.80;;
68438;SDS011;55421;51.600;5.718;2022-09-01T15:22:49;1.80;;;1.20;;
68438;SDS011;55421;51.600;5.718;2022-09-01T15:25:16;2.70;;;1.20;;
68438;SDS011;55421;51.600;5.718;2022-09-01T15:27:43;2.60;;;1.20;;
68438;SDS011;55421;51.600;5.718;2022-09-01T15:30:11;2.90;;;1.60;;
68438;SDS011;55421;51.600;5.718;2022-09-01T15:32:43;18.30;;;1.80;;
68438;SDS011;55421;51.600;5.718;2022-09-01T15:35:12;3.90;;;1.40;;
68438;SDS011;55421;51.600;5.718;2022-09-01T15:37:41;2.20;;;1.20;;
68438;SDS011;55421;51.600;5.718;2022-09-01T15:40:08;1.30;;;1.20;;
68438;SDS011;55421;51.600;5.718;2022-09-01T15:42:36;2.60;;;1.00;;
68438;SDS011;55421;51.600;5.718;2022-09-01T15:45:07;2.90;;;1.40;;
68438;SDS011;55421;51.600;5.718;2022-09-01T15:47:36;3.20;;;1.40;;
68438;SDS011;55421;51.600;5.718;2022-09-01T15:50:05;3.10;;;1.50;;
68438;SDS011;55421;51.600;5.718;2022-09-01T15:52:46;1.90;;;1.20;;
68438;SDS011;55421;51.600;5.718;2022-09-01T15:55:37;3.80;;;1.40;;
68438;SDS011;55421;51.600;5.718;2022-09-01T15:58:10;2.10;;;1.50;;
68438;SDS011;55421;51.600;5.718;2022-09-01T16:00:40;3.60;;;1.40;;
68438;SDS011;55421;51.600;5.718;2022-09-01T16:03:08;2.80;;;1.60;;
68438;SDS011;55421;51.600;5.718;2022-09-01T16:05:36;1.70;;;1.30;;
68438;SDS011;55421;51.600;5.718;2022-09-01T16:08:05;2.50;;;1.60;;
68438;SDS011;55421;51.600;5.718;2022-09-01T16:10:35;2.20;;;1.50;;
68438;SDS011;55421;51.600;5.718;2022-09-01T16:13:05;1.70;;;1.30;;
68438;SDS011;55421;51.600;5.718;2022-09-01T16:15:32;1.60;;;1.50;;
68438;SDS011;55421;51.600;5.718;2022-09-01T16:18:40;5.80;;;1.70;;
68438;SDS011;55421;51.600;5.718;2022-09-01T16:21:24;1.50;;;1.40;;
68438;SDS011;55421;51.600;5.718;2022-09-01T16:23:54;3.00;;;1.40;;
68438;SDS011;55421;51.600;5.718;2022-09-01T16:26:21;2.40;;;1.40;;
68438;SDS011;55421;51.600;5.718;2022-09-01T16:28:55;2.40;;;1.80;;
68438;SDS011;55421;51.600;5.718;2022-09-01T16:31:25;4.80;;;1.60;;
68438;SDS011;55421;51.600;5.718;2022-09-01T16:33:57;6.00;;;1.90;;
68438;SDS011;55421;51.600;5.718;2022-09-01T16:36:31;5.90;;;2.00;;
68438;SDS011;55421;51.600;5.718;2022-09-01T16:50:38;2.60;;;1.50;;
68438;SDS011;55421;51.600;5.718;2022-09-01T16:53:46;2.90;;;1.70;;
68438;SDS011;55421;51.600;5.718;2022-09-01T16:56:34;3.30;;;1.70;;
68438;SDS011;55421;51.600;5.718;2022-09-01T16:59:20;7.20;;;1.90;;